sensor_id;sensor_type;location;lat;lon;timestamp;temperature;humidity
13446;DHT22;6795;51.232;3.764;2023-07-20T00:19:24;15.00;99.90
13446;DHT22;6795;51.232;3.764;2023-07-20T00:22:37;14.60;99.90
13446;DHT22;6795;51.232;3.764;2023-07-20T00:35:30;14.50;99.90
13446;DHT22;6795;51.232;3.764;2023-07-20T00:38:50;14.20;99.90
13446;DHT22;6795;51.232;3.764;2023-07-20T00:42:01;14.20;99.90
13446;DHT22;6795;51.232;3.764;2023-07-20T00:45:07;14.10;99.90
13446;DHT22;6795;51.232;3.764;2023-07-20T00:48:10;14.00;99.90
13446;DHT22;6795;51.232;3.764;2023-07-20T00:51:23;13.90;99.90
13446;DHT22;6795;51.232;3.764;2023-07-20T00:54:33;13.80;99.90
13446;DHT22;6795;51.232;3.764;2023-07-20T01:01:42;13.70;99.90
13446;DHT22;6795;51.232;3.764;2023-07-20T01:11:43;13.60;99.90
13446;DHT22;6795;51.232;3.764;2023-07-20T01:53:48;13.40;99.90
13446;DHT22;6795;51.232;3.764;2023-07-20T06:40:18;13.10;99.90
13446;DHT22;6795;51.232;3.764;2023-07-20T06:43:48;19.30;99.90
13446;DHT22;6795;51.232;3.764;2023-07-20T06:47:24;19.20;99.90
13446;DHT22;6795;51.232;3.764;2023-07-20T06:50:48;19.10;99.90
13446;DHT22;6795;51.232;3.764;2023-07-20T06:53:51;18.90;99.90
13446;DHT22;6795;51.232;3.764;2023-07-20T06:57:00;18.80;99.90
13446;DHT22;6795;51.232;3.764;2023-07-20T07:00:10;18.60;99.90
13446;DHT22;6795;51.232;3.764;2023-07-20T07:03:37;18.50;99.90
13446;DHT22;6795;51.232;3.764;2023-07-20T07:07:02;18.40;99.90
13446;DHT22;6795;51.232;3.764;2023-07-20T07:10:52;18.70;99.90
13446;DHT22;6795;51.232;3.764;2023-07-20T07:13:43;19.40;99.90
13446;DHT22;6795;51.232;3.764;2023-07-20T08:12:26;19.90;99.90
13446;DHT22;6795;51.232;3.764;2023-07-20T08:15:49;21.60;99.90
13446;DHT22;6795;51.232;3.764;2023-07-20T08:23:29;21.70;99.90
13446;DHT22;6795;51.232;3.764;2023-07-20T08:30:08;23.00;99.90
13446;DHT22;6795;51.232;3.764;2023-07-20T08:33:12;23.00;99.90
13446;DHT22;6795;51.232;3.764;2023-07-20T08:36:26;22.90;99.90
13446;DHT22;6795;51.232;3.764;2023-07-20T08:39:43;22.80;99.90
13446;DHT22;6795;51.232;3.764;2023-07-20T08:42:57;22.70;99.90
13446;DHT22;6795;51.232;3.764;2023-07-20T08:46:02;22.80;99.90
13446;DHT22;6795;51.232;3.764;2023-07-20T08:49:24;22.80;99.90
13446;DHT22;6795;51.232;3.764;2023-07-20T08:53:29;23.10;99.90
13446;DHT22;6795;51.232;3.764;2023-07-20T09:00:41;23.50;99.90
13446;DHT22;6795;51.232;3.764;2023-07-20T09:03:40;23.20;99.90
13446;DHT22;6795;51.232;3.764;2023-07-20T09:06:48;23.30;99.90
13446;DHT22;6795;51.232;3.764;2023-07-20T09:10:10;23.40;99.90
13446;DHT22;6795;51.232;3.764;2023-07-20T09:13:22;23.50;99.90
13446;DHT22;6795;51.232;3.764;2023-07-20T09:20:43;23.90;99.90
13446;DHT22;6795;51.232;3.764;2023-07-20T09:23:52;24.30;99.90
13446;DHT22;6795;51.232;3.764;2023-07-20T09:54:01;24.30;99.90
13446;DHT22;6795;51.232;3.764;2023-07-20T10:36:24;24.40;97.10
13446;DHT22;6795;51.232;3.764;2023-07-20T11:02:52;25.10;95.40
13446;DHT22;6795;51.232;3.764;2023-07-20T11:10:15;26.80;91.50
13446;DHT22;6795;51.232;3.764;2023-07-20T11:13:59;26.00;93.00
13446;DHT22;6795;51.232;3.764;2023-07-20T11:17:20;25.70;91.60
13446;DHT22;6795;51.232;3.764;2023-07-20T11:20:37;25.10;92.60
13446;DHT22;6795;51.232;3.764;2023-07-20T11:34:07;24.70;93.60
13446;DHT22;6795;51.232;3.764;2023-07-20T11:37:31;24.40;95.00
13446;DHT22;6795;51.232;3.764;2023-07-20T11:41:16;25.00;93.60
13446;DHT22;6795;51.232;3.764;2023-07-20T11:44:39;25.10;93.50
13446;DHT22;6795;51.232;3.764;2023-07-20T12:59:36;24.90;93.00
13446;DHT22;6795;51.232;3.764;2023-07-20T13:03:22;25.00;93.20
13446;DHT22;6795;51.232;3.764;2023-07-20T13:06:46;25.00;92.70
13446;DHT22;6795;51.232;3.764;2023-07-20T13:10:14;24.50;93.70
13446;DHT22;6795;51.232;3.764;2023-07-20T13:34:06;21.50;99.50
13446;DHT22;6795;51.232;3.764;2023-07-20T13:37:19;19.60;99.90
13446;DHT22;6795;51.232;3.764;2023-07-20T13:44:25;19.50;99.90
13446;DHT22;6795;51.232;3.764;2023-07-20T13:47:51;19.60;99.90
13446;DHT22;6795;51.232;3.764;2023-07-20T13:50:59;19.50;99.90
13446;DHT22;6795;51.232;3.764;2023-07-20T15:54:24;19.30;99.90
13446;DHT22;6795;51.232;3.764;2023-07-20T15:59:25;24.40;99.90
13446;DHT22;6795;51.232;3.764;2023-07-20T16:04:11;24.00;97.50
13446;DHT22;6795;51.232;3.764;2023-07-20T17:07:58;25.30;95.50
13446;DHT22;6795;51.232;3.764;2023-07-20T17:10:26;22.30;96.60
13446;DHT22;6795;51.232;3.764;2023-07-20T17:13:06;22.20;97.90
13446;DHT22;6795;51.232;3.764;2023-07-20T17:16:00;21.90;97.40
13446;DHT22;6795;51.232;3.764;2023-07-20T17:18:37;21.70;97.90
13446;DHT22;6795;51.232;3.764;2023-07-20T17:21:18;21.60;98.80
13446;DHT22;6795;51.232;3.764;2023-07-20T17:23:49;21.30;99.70
13446;DHT22;6795;51.232;3.764;2023-07-20T17:26:20;21.40;99.90
13446;DHT22;6795;51.232;3.764;2023-07-20T17:28:52;21.30;99.90
13446;DHT22;6795;51.232;3.764;2023-07-20T17:31:24;21.30;99.90
13446;DHT22;6795;51.232;3.764;2023-07-20T17:33:56;21.30;99.90
13446;DHT22;6795;51.232;3.764;2023-07-20T17:36:27;21.40;99.90
13446;DHT22;6795;51.232;3.764;2023-07-20T17:39:00;21.40;99.90
13446;DHT22;6795;51.232;3.764;2023-07-20T17:41:29;21.50;99.90
13446;DHT22;6795;51.232;3.764;2023-07-20T17:43:58;21.60;99.90
13446;DHT22;6795;51.232;3.764;2023-07-20T17:46:56;21.70;99.90
13446;DHT22;6795;51.232;3.764;2023-07-20T17:49:27;21.80;99.90
13446;DHT22;6795;51.232;3.764;2023-07-20T17:51:56;21.90;99.90
13446;DHT22;6795;51.232;3.764;2023-07-20T17:54:25;21.90;99.90
13446;DHT22;6795;51.232;3.764;2023-07-20T17:56:54;21.90;99.90
13446;DHT22;6795;51.232;3.764;2023-07-20T17:59:22;21.70;99.90
13446;DHT22;6795;51.232;3.764;2023-07-20T18:01:50;21.50;99.90
13446;DHT22;6795;51.232;3.764;2023-07-20T18:04:23;21.40;99.90
13446;DHT22;6795;51.232;3.764;2023-07-20T18:06:51;21.40;99.90
13446;DHT22;6795;51.232;3.764;2023-07-20T18:09:21;21.30;99.90
13446;DHT22;6795;51.232;3.764;2023-07-20T18:19:25;21.10;99.90
13446;DHT22;6795;51.232;3.764;2023-07-20T18:21:55;20.60;99.90
13446;DHT22;6795;51.232;3.764;2023-07-20T18:24:24;20.50;99.90
13446;DHT22;6795;51.232;3.764;2023-07-20T18:26:53;20.40;99.90
13446;DHT22;6795;51.232;3.764;2023-07-20T18:29:23;20.30;99.90
13446;DHT22;6795;51.232;3.764;2023-07-20T18:31:51;20.20;99.90
13446;DHT22;6795;51.232;3.764;2023-07-20T18:34:20;20.20;99.90
13446;DHT22;6795;51.232;3.764;2023-07-20T18:36:50;20.10;99.90
13446;DHT22;6795;51.232;3.764;2023-07-20T18:39:18;20.00;99.90
13446;DHT22;6795;51.232;3.764;2023-07-20T18:41:46;20.00;99.90
13446;DHT22;6795;51.232;3.764;2023-07-20T18:44:18;19.90;99.90
13446;DHT22;6795;51.232;3.764;2023-07-20T18:49:15;19.90;99.90
13446;DHT22;6795;51.232;3.764;2023-07-20T18:51:43;19.70;99.90
13446;DHT22;6795;51.232;3.764;2023-07-20T18:54:13;19.60;99.90
13446;DHT22;6795;51.232;3.764;2023-07-20T18:56:41;19.60;99.90
13446;DHT22;6795;51.232;3.764;2023-07-20T19:17:21;19.50;99.90
13446;DHT22;6795;51.232;3.764;2023-07-20T19:19:52;18.60;99.90
13446;DHT22;6795;51.232;3.764;2023-07-20T19:24:52;18.40;99.90
13446;DHT22;6795;51.232;3.764;2023-07-20T19:27:22;18.00;99.90
13446;DHT22;6795;51.232;3.764;2023-07-20T19:29:53;17.80;99.90
13446;DHT22;6795;51.232;3.764;2023-07-20T19:32:37;17.70;99.90
13446;DHT22;6795;51.232;3.764;2023-07-20T19:35:11;17.50;99.90
13446;DHT22;6795;51.232;3.764;2023-07-20T19:37:41;17.30;99.90
13446;DHT22;6795;51.232;3.764;2023-07-20T19:40:14;17.10;99.90
13446;DHT22;6795;51.232;3.764;2023-07-20T19:42:43;16.90;99.90
13446;DHT22;6795;51.232;3.764;2023-07-20T19:45:18;16.70;99.90
13446;DHT22;6795;51.232;3.764;2023-07-20T19:47:47;16.60;99.90
13446;DHT22;6795;51.232;3.764;2023-07-20T19:50:15;16.40;99.90
13446;DHT22;6795;51.232;3.764;2023-07-20T19:52:46;16.30;99.90
13446;DHT22;6795;51.232;3.764;2023-07-20T19:55:18;16.10;99.90
13446;DHT22;6795;51.232;3.764;2023-07-20T19:58:29;16.00;99.90
13446;DHT22;6795;51.232;3.764;2023-07-20T20:00:49;15.80;99.90
13446;DHT22;6795;51.232;3.764;2023-07-20T20:03:20;15.80;99.90
13446;DHT22;6795;51.232;3.764;2023-07-20T20:05:55;15.80;99.90
13446;DHT22;6795;51.232;3.764;2023-07-20T20:08:24;15.60;99.90
13446;DHT22;6795;51.232;3.764;2023-07-20T20:10:52;15.50;99.90
13446;DHT22;6795;51.232;3.764;2023-07-20T20:13:25;15.40;99.90
13446;DHT22;6795;51.232;3.764;2023-07-20T20:18:23;15.40;99.90
13446;DHT22;6795;51.232;3.764;2023-07-20T20:53:45;15.00;99.90
13446;DHT22;6795;51.232;3.764;2023-07-20T20:56:13;14.20;99.90
13446;DHT22;6795;51.232;3.764;2023-07-20T20:58:41;14.40;99.90
13446;DHT22;6795;51.232;3.764;2023-07-20T21:01:10;14.30;99.90
13446;DHT22;6795;51.232;3.764;2023-07-20T21:03:40;14.30;99.90
13446;DHT22;6795;51.232;3.764;2023-07-20T21:06:34;14.30;99.90
13446;DHT22;6795;51.232;3.764;2023-07-20T21:10:23;14.20;99.90
13446;DHT22;6795;51.232;3.764;2023-07-20T21:13:42;14.10;99.90
13446;DHT22;6795;51.232;3.764;2023-07-20T21:17:47;14.00;99.90
13446;DHT22;6795;51.232;3.764;2023-07-20T21:21:39;14.00;99.90
13446;DHT22;6795;51.232;3.764;2023-07-20T21:24:49;13.80;99.90
13446;DHT22;6795;51.232;3.764;2023-07-20T21:28:35;13.80;99.90
13446;DHT22;6795;51.232;3.764;2023-07-20T21:31:27;13.80;99.90
